Time;durP1;ratioP1;P1;durP2;ratioP2;P2;SDS_P1;SDS_P2;PMS_P1;PMS_P2;Temp;Humidity;BMP_temperature;BMP_pressure;BME280_temperature;BME280_humidity;BME280_pressure;Samples;Min_cycle;Max_cycle;Signal;HPM_P1;HPM_P2
2023/01/06 00:00:16;;;;;;;;;2.75;2.75;;;;;14.21;66.98;101637.44;2095207;28;46726;-61
2023/01/06 00:01:18;;;;;;;;;3.67;1.67;;;;;14.22;66.82;101636.50;2095816;28;46507;-61
2023/01/06 00:02:19;;;;;;;;;1.00;1.00;;;;;14.21;66.83;101632.09;2105603;28;46552;-62
2023/01/06 00:03:19;;;;;;;;;2.00;2.00;;;;;14.20;66.92;101639.22;2106191;27;46901;-61
2023/01/06 00:04:19;;;;;;;;;0.67;0.67;;;;;14.19;66.71;101631.25;2113319;27;46877;-61
2023/01/06 00:05:20;;;;;;;;;1.00;1.00;;;;;14.19;66.77;101633.91;2110022;27;45605;-63
2023/01/06 00:06:26;;;;;;;;;1.00;1.00;;;;;14.19;66.96;101634.78;2104796;28;46523;-63
2023/01/06 00:07:26;;;;;;;;;1.75;1.75;;;;;14.19;66.71;101640.13;2110639;27;46967;-62
2023/01/06 00:08:27;;;;;;;;;2.00;2.00;;;;;14.21;66.98;101634.75;2113622;27;46695;-61
2023/01/06 00:09:27;;;;;;;;;2.67;1.00;;;;;14.20;66.91;101630.34;2113740;27;46565;-61
2023/01/06 00:10:28;;;;;;;;;1.00;1.00;;;;;14.20;66.70;101625.00;2112361;27;46514;-62
2023/01/06 00:11:29;;;;;;;;;1.00;1.00;;;;;14.20;66.78;101630.34;2113754;27;46584;-63
2023/01/06 00:12:30;;;;;;;;;0.75;0.75;;;;;14.20;66.49;101631.22;2113606;27;45608;-62
2023/01/06 00:13:30;;;;;;;;;0.67;0.67;;;;;14.19;66.60;101629.47;2113274;27;46555;-61
2023/01/06 00:14:30;;;;;;;;;1.00;1.00;;;;;14.18;67.24;101630.38;2107721;27;45526;-62
2023/01/06 00:15:32;;;;;;;;;0.67;0.67;;;;;14.17;66.56;101633.97;2110511;27;46247;-63
2023/01/06 00:16:33;;;;;;;;;1.00;1.00;;;;;14.16;66.64;101642.88;2107124;27;46383;-61
2023/01/06 00:17:33;;;;;;;;;0.67;0.00;;;;;14.16;66.61;101634.88;2102973;28;46256;-62
2023/01/06 00:18:34;;;;;;;;;0.00;0.00;;;;;14.15;66.64;101635.78;2099526;28;45830;-61
2023/01/06 00:19:34;;;;;;;;;3.67;2.67;;;;;14.14;66.57;101642.91;2109188;27;46482;-61
2023/01/06 00:20:35;;;;;;;;;3.00;3.00;;;;;14.14;66.98;101629.56;2102622;28;46869;-61
2023/01/06 00:21:35;;;;;;;;;1.33;1.33;;;;;14.15;66.93;101633.13;2095304;28;46705;-61
2023/01/06 00:22:35;;;;;;;;;2.00;2.00;;;;;14.14;66.81;101634.03;2093963;28;45542;-62
2023/01/06 00:23:36;;;;;;;;;1.33;1.33;;;;;14.16;66.78;101650.00;2100822;28;45195;-62
2023/01/06 00:24:37;;;;;;;;;0.67;0.67;;;;;14.17;67.25;101631.28;2113115;27;46453;-62
2023/01/06 00:25:37;;;;;;;;;2.00;2.00;;;;;14.18;67.05;101642.84;2113196;27;46321;-62
2023/01/06 00:26:37;;;;;;;;;2.67;1.00;;;;;14.19;67.15;101647.28;2109540;27;46322;-62
2023/01/06 00:27:38;;;;;;;;;0.00;0.00;;;;;14.19;66.86;101642.81;2109239;27;46042;-63
2023/01/06 00:28:39;;;;;;;;;1.00;1.00;;;;;14.18;66.54;101642.84;2111679;27;46764;-62
2023/01/06 00:29:39;;;;;;;;;2.33;2.00;;;;;14.18;66.85;101651.72;2099117;28;46466;-62
2023/01/06 00:30:40;;;;;;;;;1.00;1.00;;;;;14.18;66.98;101651.72;2101842;28;46506;-61
2023/01/06 00:31:40;;;;;;;;;1.33;1.00;;;;;14.17;66.95;101651.78;2108214;27;46709;-61
2023/01/06 00:32:40;;;;;;;;;1.33;1.00;;;;;14.18;66.79;101650.84;2106579;27;47520;-62
2023/01/06 00:33:42;;;;;;;;;0.00;0.00;;;;;14.17;66.69;101646.44;2112901;27;46590;-62
2023/01/06 00:34:42;;;;;;;;;1.75;0.75;;;;;14.15;66.87;101641.13;2107736;27;46419;-62
2023/01/06 00:35:43;;;;;;;;;0.00;0.00;;;;;14.13;66.76;101645.63;2108556;27;46673;-61
2023/01/06 00:36:43;;;;;;;;;1.67;1.67;;;;;14.12;66.84;101644.75;2102509;28;46541;-62
2023/01/06 00:37:44;;;;;;;;;1.33;1.00;;;;;14.12;66.91;101642.06;2099578;28;46611;-62
2023/01/06 00:38:44;;;;;;;;;2.00;1.00;;;;;14.11;66.86;101644.78;2113470;27;46109;-62
2023/01/06 00:39:44;;;;;;;;;1.00;1.00;;;;;14.12;67.13;101647.41;2112895;27;46555;-61
2023/01/06 00:40:44;;;;;;;;;0.00;0.00;;;;;14.13;66.76;101646.50;2109626;27;45847;-62
2023/01/06 00:42:03;;;;;;;;;0.67;0.67;;;;;14.14;67.15;101650.06;2110169;27;46715;-63
2023/01/06 00:43:04;;;;;;;;;0.25;0.25;;;;;14.14;66.81;101648.25;2110131;27;47083;-61
2023/01/06 00:44:05;;;;;;;;;0.00;0.00;;;;;14.15;66.80;101649.13;2113703;27;46581;-62
2023/01/06 00:45:06;;;;;;;;;0.75;0.75;;;;;14.16;66.78;101650.00;2106340;28;46618;-60
2023/01/06 00:46:06;;;;;;;;;1.50;1.50;;;;;14.14;66.73;101658.06;2113927;27;47248;-62
2023/01/06 00:47:08;;;;;;;;;1.00;1.00;;;;;14.14;67.06;101652.72;2105680;28;46287;-61
2023/01/06 00:48:09;;;;;;;;;2.00;1.00;;;;;14.12;66.78;101652.75;2105360;27;46387;-61
2023/01/06 00:49:09;;;;;;;;;0.67;0.67;;;;;14.11;66.85;101660.81;2108020;27;46702;-62
2023/01/06 00:50:10;;;;;;;;;2.00;2.00;;;;;14.10;66.97;101657.25;2105816;27;46417;-63
2023/01/06 00:51:10;;;;;;;;;0.00;0.00;;;;;14.11;66.79;101650.13;2106580;27;46314;-63
2023/01/06 00:52:11;;;;;;;;;1.67;0.67;;;;;14.10;67.12;101643.91;2106607;27;45833;-63
2023/01/06 00:53:11;;;;;;;;;0.33;0.33;;;;;14.11;66.98;101652.78;2114286;27;46574;-63
2023/01/06 00:54:12;;;;;;;;;2.00;1.00;;;;;14.12;67.08;101651.88;2101067;28;46987;-62
2023/01/06 00:55:13;;;;;;;;;0.75;0.75;;;;;14.11;67.08;101650.13;2105444;27;46597;-62
2023/01/06 00:56:13;;;;;;;;;0.00;0.00;;;;;14.10;66.77;101648.34;2113375;27;46795;-62
2023/01/06 00:57:14;;;;;;;;;0.67;0.67;;;;;14.09;67.25;101642.13;2110033;27;46438;-62
2023/01/06 00:58:14;;;;;;;;;1.00;1.00;;;;;14.10;67.25;101657.25;2114070;27;46041;-61
2023/01/06 00:59:17;;;;;;;;;0.33;0.33;;;;;14.11;67.17;101652.78;2111674;27;46803;-62
2023/01/06 01:00:18;;;;;;;;;0.75;0.75;;;;;14.11;67.04;101659.00;2111167;27;46328;-62
2023/01/06 01:01:18;;;;;;;;;1.00;0.33;;;;;14.13;67.12;101657.19;2114549;27;46685;-61
2023/01/06 01:02:18;;;;;;;;;0.33;0.33;;;;;14.16;67.12;101656.22;2111495;27;46617;-61
2023/01/06 01:03:19;;;;;;;;;0.33;0.33;;;;;14.16;66.91;101664.25;2111315;27;46258;-62
2023/01/06 01:04:20;;;;;;;;;1.00;1.00;;;;;14.17;67.11;101651.78;2114138;27;46151;-61
2023/01/06 01:05:20;;;;;;;;;1.00;1.00;;;;;14.15;67.14;101654.47;2109928;27;46378;-62
2023/01/06 01:06:20;;;;;;;;;0.00;0.00;;;;;14.13;67.10;101658.97;2106760;27;46860;-63
2023/01/06 01:07:21;;;;;;;;;1.00;1.00;;;;;14.12;67.18;101657.22;2105162;28;46846;-61
2023/01/06 01:08:21;;;;;;;;;0.33;0.33;;;;;14.11;67.39;101659.00;2104862;28;46922;-61
2023/01/06 01:09:24;;;;;;;;;0.33;0.33;;;;;14.09;66.89;101658.13;2104944;28;45834;-60
2023/01/06 01:10:25;;;;;;;;;0.00;0.00;;;;;14.07;66.79;101662.63;2093146;28;46938;-61
2023/01/06 01:12:45;;;;;;;;;0.00;0.00;;;;;14.06;67.28;101663.53;2097387;28;46582;-62
2023/01/06 01:13:45;;;;;;;;;2.00;0.00;;;;;14.06;67.21;101660.00;2105820;28;46045;-62
2023/01/06 01:14:51;;;;;;;;;0.00;0.00;;;;;14.03;67.10;101662.75;2106422;27;45957;-62
2023/01/06 01:15:51;;;;;;;;;0.00;0.00;;;;;14.02;67.41;101653.84;2097526;28;46281;-63
2023/01/06 01:16:51;;;;;;;;;2.00;0.67;;;;;14.02;67.59;101660.97;2099029;28;47053;-62
2023/01/06 01:17:52;;;;;;;;;0.00;0.00;;;;;14.00;67.44;101654.81;2103422;28;45977;-61
2023/01/06 01:18:52;;;;;;;;;0.00;0.00;;;;;13.99;67.33;101658.38;2108705;27;46860;-62
2023/01/06 01:19:54;;;;;;;;;1.00;0.00;;;;;13.96;67.70;101653.09;2096818;28;46279;-62
2023/01/06 01:20:55;;;;;;;;;0.00;0.00;;;;;13.93;67.69;101648.69;2097003;28;47101;-62
2023/01/06 01:21:56;;;;;;;;;2.00;0.00;;;;;13.91;67.49;101650.53;2106173;27;46822;-62
2023/01/06 01:22:56;;;;;;;;;0.00;0.00;;;;;13.89;67.64;101647.00;2106261;27;46372;-61
2023/01/06 01:23:57;;;;;;;;;1.00;1.00;;;;;13.88;68.05;101647.06;2108088;27;46548;-62
2023/01/06 01:24:57;;;;;;;;;0.00;0.00;;;;;13.87;67.94;101651.50;2108229;27;46362;-62
2023/01/06 01:25:57;;;;;;;;;0.00;0.00;;;;;13.88;68.12;101642.59;2105713;28;46110;-62
2023/01/06 01:26:58;;;;;;;;;1.00;1.00;;;;;13.89;67.98;101648.81;2108350;27;46323;-61
2023/01/06 01:27:58;;;;;;;;;1.00;1.00;;;;;13.89;68.22;101646.13;2105482;28;46541;-62
2023/01/06 01:29:00;;;;;;;;;1.00;1.00;;;;;13.89;67.86;101639.00;2105972;28;46924;-62
2023/01/06 01:30:00;;;;;;;;;0.00;0.00;;;;;13.89;67.69;101638.13;2108347;27;46249;-62
2023/01/06 01:31:02;;;;;;;;;0.67;0.67;;;;;13.89;68.13;101640.81;2106234;27;46668;-62
2023/01/06 01:32:02;;;;;;;;;0.75;0.75;;;;;13.90;67.95;101637.22;2107133;27;46392;-62
2023/01/06 01:33:03;;;;;;;;;0.00;0.00;;;;;13.90;67.77;101643.44;2108375;27;46262;-62
2023/01/06 01:34:03;;;;;;;;;0.00;0.00;;;;;13.89;67.93;101633.69;2105898;28;46215;-61
2023/01/06 01:35:04;;;;;;;;;1.67;1.33;;;;;13.89;68.21;101633.69;2105831;28;46524;-61
2023/01/06 01:36:09;;;;;;;;;0.00;0.00;;;;;13.89;68.27;101639.00;2098722;28;46865;-62
2023/01/06 01:37:09;;;;;;;;;0.75;0.75;;;;;13.89;68.10;101640.81;2097416;28;46440;-63
2023/01/06 01:38:10;;;;;;;;;0.00;0.00;;;;;13.89;68.08;101635.47;2112758;27;45660;-62
2023/01/06 01:39:11;;;;;;;;;0.00;0.00;;;;;13.89;68.52;101630.13;2105104;28;46775;-62
2023/01/06 01:40:12;;;;;;;;;0.00;0.00;;;;;13.89;68.41;101632.78;2098204;28;45707;-62
2023/01/06 01:41:16;;;;;;;;;0.67;0.67;;;;;13.89;68.31;101627.47;2108882;27;45733;-61
2023/01/06 01:42:20;;;;;;;;;0.00;0.00;;;;;13.89;68.16;101628.34;2105533;27;46476;-63
2023/01/06 01:43:21;;;;;;;;;0.75;0.75;;;;;13.88;68.18;101633.72;2105855;28;47113;-61
2023/01/06 01:44:58;;;;;;;;;1.00;0.00;;;;;13.87;68.41;101631.94;2096724;28;46590;-61
2023/01/06 01:45:59;;;;;;;;;0.00;0.00;;;;;13.87;68.28;101623.94;2102131;27;45060;-61
2023/01/06 01:46:59;;;;;;;;;0.00;0.00;;;;;13.87;68.64;101626.63;2114583;27;45821;-62
2023/01/06 01:48:16;;;;;;;;;2.00;1.00;;;;;13.87;68.44;101627.50;2109255;27;46518;-62
2023/01/06 01:49:27;;;;;;;;;0.25;0.25;;;;;13.87;68.64;101626.63;2108273;27;46993;-61
2023/01/06 01:50:40;;;;;;;;;0.25;0.00;;;;;13.86;68.48;101623.06;2107162;27;46274;-61
2023/01/06 01:51:43;;;;;;;;;0.00;0.00;;;;;13.86;69.04;101620.41;2106318;28;45312;-62
2023/01/06 01:52:48;;;;;;;;;0.00;0.00;;;;;13.83;68.70;101615.09;2108420;27;46672;-62
2023/01/06 01:53:52;;;;;;;;;1.00;0.00;;;;;13.82;68.58;101610.69;2107529;27;46674;-61
2023/01/06 01:54:55;;;;;;;;;0.00;0.00;;;;;13.82;68.84;101610.69;2097609;28;46662;-62
2023/01/06 01:55:59;;;;;;;;;0.00;0.00;;;;;13.79;69.02;101622.31;2106483;27;45865;-62
2023/01/06 01:57:13;;;;;;;;;0.75;0.75;;;;;13.78;68.79;101623.22;2107662;27;46367;-62
2023/01/06 01:58:20;;;;;;;;;1.00;1.00;;;;;13.79;68.98;101618.75;2097281;28;46457;-61
2023/01/06 01:59:24;;;;;;;;;0.00;0.00;;;;;13.77;69.14;101618.78;2114252;27;46318;-62
2023/01/06 02:00:25;;;;;;;;;0.00;0.00;;;;;13.75;69.26;101625.94;2113113;27;46521;-63
2023/01/06 02:01:27;;;;;;;;;0.00;0.00;;;;;13.77;68.60;101626.78;2105880;28;47186;-62
2023/01/06 02:02:30;;;;;;;;;0.25;0.00;;;;;13.78;69.05;101627.69;2113486;27;45405;-61
2023/01/06 02:03:31;;;;;;;;;0.00;0.00;;;;;13.76;69.46;101625.03;2111794;27;46388;-61
2023/01/06 02:04:35;;;;;;;;;0.00;0.00;;;;;13.76;69.41;101619.72;2106079;27;46583;-61
2023/01/06 02:05:40;;;;;;;;;0.75;0.75;;;;;13.77;69.11;101625.91;2108502;27;46710;-62
2023/01/06 02:06:41;;;;;;;;;0.00;0.00;;;;;13.77;69.35;101625.91;2105980;28;46790;-62
2023/01/06 02:07:42;;;;;;;;;0.00;0.00;;;;;13.79;69.07;101621.44;2097811;28;45507;-62
2023/01/06 02:09:09;;;;;;;;;0.00;0.00;;;;;13.80;69.29;101625.84;2099474;28;46258;-61
2023/01/06 02:10:13;;;;;;;;;0.75;0.75;;;;;13.79;69.19;101621.44;2113701;27;46131;-61
2023/01/06 02:11:14;;;;;;;;;0.00;0.00;;;;;13.78;69.34;101617.00;2105641;28;46676;-61
2023/01/06 02:12:14;;;;;;;;;2.00;0.00;;;;;13.78;69.15;101611.66;2111787;27;45575;-62
2023/01/06 02:13:14;;;;;;;;;0.00;0.00;;;;;13.77;69.21;101610.78;2114222;27;46909;-62
2023/01/06 02:14:18;;;;;;;;;1.67;0.00;;;;;13.77;69.33;101610.78;2106110;27;46596;-62
2023/01/06 02:15:24;;;;;;;;;0.00;0.00;;;;;13.78;69.23;101617.00;2109699;27;47170;-62
2023/01/06 02:16:39;;;;;;;;;0.00;0.00;;;;;13.78;69.13;101609.88;2114413;27;46583;-62
2023/01/06 02:17:48;;;;;;;;;0.50;0.00;;;;;13.77;68.99;101616.13;2097203;28;46653;-63
2023/01/06 02:19:09;;;;;;;;;1.50;0.25;;;;;13.77;69.14;101616.13;2104737;27;46411;-62
2023/01/06 02:20:28;;;;;;;;;0.00;0.00;;;;;13.77;69.32;101618.78;2108457;27;46644;-63
2023/01/06 02:21:51;;;;;;;;;0.00;0.00;;;;;13.79;69.17;101613.41;2107376;27;46829;-61
2023/01/06 02:22:57;;;;;;;;;1.00;1.00;;;;;13.79;69.33;101616.09;2097720;27;46214;-61
2023/01/06 02:24:28;;;;;;;;;0.00;0.00;;;;;13.80;69.22;101610.72;2107403;27;46521;-61
2023/01/06 02:26:08;;;;;;;;;0.00;0.00;;;;;13.80;69.36;101612.50;2111944;27;47247;-62
2023/01/06 02:27:11;;;;;;;;;0.00;0.00;;;;;13.80;68.95;101613.38;2106798;27;46515;-61
2023/01/06 02:28:11;;;;;;;;;0.00;0.00;;;;;13.81;68.87;101619.59;2108701;27;46900;-62
2023/01/06 02:29:49;;;;;;;;;1.00;0.00;;;;;13.82;69.26;101624.03;2114056;27;46656;-61
2023/01/06 02:31:27;;;;;;;;;0.00;0.00;;;;;13.81;69.12;101625.81;2097597;28;46060;-62
2023/01/06 02:32:36;;;;;;;;;0.50;0.50;;;;;13.81;69.06;101608.94;2071358;28;46401;-62
2023/01/06 02:33:52;;;;;;;;;0.00;0.00;;;;;13.81;68.88;101615.13;2079261;28;46790;-62
2023/01/06 02:35:19;;;;;;;;;0.00;0.00;;;;;13.81;69.09;101611.59;2082703;28;47283;-62
2023/01/06 02:36:31;;;;;;;;;1.00;1.00;;;;;13.80;68.95;101621.38;2082872;28;46848;-62
2023/01/06 02:37:34;;;;;;;;;0.75;0.75;;;;;13.80;68.93;101624.06;2071036;28;46291;-61
2023/01/06 02:38:53;;;;;;;;;0.00;0.00;;;;;13.78;69.00;101617.00;2072495;28;46677;-62
2023/01/06 02:40:12;;;;;;;;;0.75;0.75;;;;;13.77;69.14;101608.13;2081053;28;46731;-62
2023/01/06 02:41:39;;;;;;;;;0.00;0.00;;;;;13.77;69.22;101612.59;2081153;28;46454;-62
2023/01/06 02:43:08;;;;;;;;;1.00;0.00;;;;;13.78;69.20;101615.22;2076087;28;45904;-62
2023/01/06 02:44:21;;;;;;;;;0.25;0.25;;;;;13.79;69.16;101613.41;2079497;28;46590;-62
2023/01/06 02:45:28;;;;;;;;;0.00;0.00;;;;;13.79;68.98;101610.75;2079650;28;46694;-62
2023/01/06 02:46:50;;;;;;;;;0.00;0.00;;;;;13.78;69.23;101604.53;2079423;28;46484;-62
2023/01/06 02:48:14;;;;;;;;;0.00;0.00;;;;;13.78;69.09;101598.31;2079905;28;46721;-62
2023/01/06 02:49:29;;;;;;;;;0.50;0.00;;;;;13.78;69.56;101601.88;2079866;28;46355;-63
2023/01/06 02:51:00;;;;;;;;;0.75;0.75;;;;;13.78;69.43;101603.66;2079375;28;46367;-62
2023/01/06 02:52:09;;;;;;;;;0.00;0.00;;;;;13.77;69.34;101599.25;2079420;28;47417;-62
2023/01/06 02:53:21;;;;;;;;;0.00;0.00;;;;;13.77;69.58;101601.91;2079201;28;46550;-62
2023/01/06 02:54:47;;;;;;;;;0.00;0.00;;;;;13.77;69.32;101593.91;2085593;28;46862;-62
2023/01/06 02:55:50;;;;;;;;;1.00;1.00;;;;;13.77;69.60;101597.44;2080559;28;47057;-62
2023/01/06 02:57:04;;;;;;;;;0.75;0.00;;;;;13.77;69.32;101588.56;2079488;28;46898;-62
2023/01/06 02:58:11;;;;;;;;;0.00;0.00;;;;;13.76;69.64;101592.16;2071535;28;46593;-62
2023/01/06 02:59:24;;;;;;;;;0.75;0.75;;;;;13.75;69.33;101593.94;2072038;28;47426;-60
2023/01/06 03:00:35;;;;;;;;;0.00;0.00;;;;;13.74;69.37;101584.19;2079327;28;46722;-62
2023/01/06 03:01:40;;;;;;;;;1.00;0.00;;;;;13.75;69.39;101583.28;2080014;28;46745;-62
2023/01/06 03:02:47;;;;;;;;;0.00;0.00;;;;;13.75;69.68;101580.59;2086085;28;47312;-61
2023/01/06 03:03:50;;;;;;;;;0.00;0.00;;;;;13.75;69.39;101580.59;2076728;28;46549;-61
2023/01/06 03:04:55;;;;;;;;;0.00;0.00;;;;;13.74;69.63;101572.63;2079655;28;46586;-61
2023/01/06 03:06:04;;;;;;;;;0.50;0.50;;;;;13.73;69.33;101576.22;2079652;28;46536;-62
2023/01/06 03:07:06;;;;;;;;;0.50;0.50;;;;;13.71;69.40;101576.22;2082105;28;46410;-62
2023/01/06 03:08:14;;;;;;;;;0.00;0.00;;;;;13.72;69.61;101577.09;2087164;28;46167;-61
2023/01/06 03:09:27;;;;;;;;;0.00;0.00;;;;;13.71;69.49;101576.22;2079984;28;46810;-62
2023/01/06 03:10:29;;;;;;;;;1.50;1.00;;;;;13.70;69.74;101571.81;2106228;27;45609;-61
2023/01/06 03:11:33;;;;;;;;;0.00;0.00;;;;;13.72;69.45;101571.75;2105448;28;46596;-61
2023/01/06 03:12:46;;;;;;;;;0.00;0.00;;;;;13.72;69.73;101579.75;2113342;27;46773;-61
2023/01/06 03:14:01;;;;;;;;;0.00;0.00;;;;;13.73;69.55;101578.88;2109615;27;46278;-62
2023/01/06 03:15:02;;;;;;;;;0.00;0.00;;;;;13.74;69.59;101569.97;2098855;27;46312;-62
2023/01/06 03:16:03;;;;;;;;;1.33;1.33;;;;;13.75;69.54;101579.72;2103867;28;46295;-62
2023/01/06 03:17:03;;;;;;;;;0.50;0.50;;;;;13.73;69.63;101577.09;2109278;27;46413;-62
2023/01/06 03:18:04;;;;;;;;;0.33;0.33;;;;;13.74;69.40;101578.84;2113646;27;46450;-62
2023/01/06 03:19:05;;;;;;;;;0.00;0.00;;;;;13.73;69.44;101574.44;2107568;27;46274;-62
2023/01/06 03:20:06;;;;;;;;;0.00;0.00;;;;;13.74;69.48;101576.19;2108488;27;45219;-62
2023/01/06 03:21:12;;;;;;;;;0.00;0.00;;;;;13.75;69.46;101580.59;2113759;27;47514;-61
2023/01/06 03:22:14;;;;;;;;;0.25;0.25;;;;;13.77;69.27;101578.78;2108416;27;46428;-61
2023/01/06 03:23:16;;;;;;;;;0.00;0.00;;;;;13.76;69.23;101574.34;2105558;27;46590;-61
2023/01/06 03:24:16;;;;;;;;;0.00;0.00;;;;;13.77;69.29;101573.44;2105344;28;46453;-61
2023/01/06 03:25:17;;;;;;;;;1.00;1.00;;;;;13.77;69.41;101580.56;2106424;27;46854;-61
2023/01/06 03:26:17;;;;;;;;;0.00;0.00;;;;;13.76;69.36;101579.69;2105632;27;46510;-61
2023/01/06 03:27:22;;;;;;;;;1.67;0.00;;;;;13.74;69.55;101576.19;2105956;27;46591;-62
2023/01/06 03:28:22;;;;;;;;;0.00;0.00;;;;;13.74;69.07;101573.50;2105855;27;46543;-61
2023/01/06 03:29:23;;;;;;;;;0.00;0.00;;;;;13.72;69.42;101575.34;2105813;27;46700;-60
2023/01/06 03:30:30;;;;;;;;;0.00;0.00;;;;;13.71;69.59;101580.69;2106995;27;46585;-61
2023/01/06 03:31:57;;;;;;;;;1.00;1.00;;;;;13.71;69.35;101570.88;2105988;27;45861;-61
2023/01/06 03:33:24;;;;;;;;;2.00;0.75;;;;;13.72;69.46;101579.75;2105670;27;46867;-62
2023/01/06 03:34:49;;;;;;;;;1.00;1.00;;;;;13.72;69.24;101577.09;2105302;28;46632;-61
2023/01/06 03:36:11;;;;;;;;;0.00;0.00;;;;;13.69;69.57;101566.50;2102364;27;46891;-63
2023/01/06 03:37:26;;;;;;;;;0.00;0.00;;;;;13.70;69.44;101574.47;2096523;28;46715;-62
2023/01/06 03:38:52;;;;;;;;;1.00;1.00;;;;;13.70;69.62;101565.59;2096131;28;46891;-62
2023/01/06 03:39:57;;;;;;;;;0.25;0.00;;;;;13.70;69.32;101566.47;2100607;28;46926;-61
2023/01/06 03:41:20;;;;;;;;;0.00;0.00;;;;;13.71;69.18;101567.34;2105386;27;46455;-62
2023/01/06 03:44:18;;;;;;;;;0.00;0.00;;;;;13.70;69.52;101563.78;2090716;28;47007;-61
2023/01/06 03:45:18;;;;;;;;;0.00;0.00;;;;;13.71;69.15;101564.66;2084855;28;46371;-61
2023/01/06 03:46:33;;;;;;;;;0.00;0.00;;;;;13.70;69.31;101569.13;2088098;28;46571;-62
2023/01/06 03:47:45;;;;;;;;;0.00;0.00;;;;;13.70;69.17;101569.13;2087906;28;46955;-61
2023/01/06 03:49:11;;;;;;;;;0.25;0.25;;;;;13.69;69.35;101569.16;2087071;28;46734;-62
2023/01/06 03:50:24;;;;;;;;;0.00;0.00;;;;;13.69;69.33;101566.50;2087360;28;46845;-63
2023/01/06 03:51:42;;;;;;;;;0.00;0.00;;;;;13.68;69.42;101564.75;2070517;28;46994;-61
2023/01/06 03:52:55;;;;;;;;;0.00;0.00;;;;;13.68;69.32;101560.28;2076039;28;46784;-61
2023/01/06 03:54:00;;;;;;;;;0.00;0.00;;;;;13.70;69.48;101565.59;2087987;28;46419;-62
2023/01/06 03:55:13;;;;;;;;;0.00;0.00;;;;;13.70;69.54;101562.91;2087555;28;45848;-62
2023/01/06 03:56:28;;;;;;;;;0.00;0.00;;;;;13.70;69.58;101562.91;2087862;28;46609;-61
2023/01/06 03:57:33;;;;;;;;;0.00;0.00;;;;;13.71;69.33;101564.66;2091628;28;46746;-60
2023/01/06 03:58:37;;;;;;;;;0.00;0.00;;;;;13.71;69.60;101557.53;2095482;28;46435;-62
2023/01/06 03:59:47;;;;;;;;;0.00;0.00;;;;;13.71;69.58;101554.00;2087266;28;46462;-61
2023/01/06 04:00:48;;;;;;;;;0.00;0.00;;;;;13.71;69.48;101540.66;2092221;28;46833;-62
2023/01/06 04:01:49;;;;;;;;;1.00;1.00;;;;;13.71;69.50;101552.22;2095465;28;46224;-62
2023/01/06 04:02:49;;;;;;;;;0.00;0.00;;;;;13.72;69.67;101547.75;2087895;28;46588;-61
2023/01/06 04:03:54;;;;;;;;;0.33;0.00;;;;;13.72;69.59;101540.66;2083884;28;46852;-60
2023/01/06 04:05:11;;;;;;;;;0.00;0.00;;;;;13.73;69.52;101536.22;2087346;28;46767;-60
2023/01/06 04:06:12;;;;;;;;;0.00;0.00;;;;;13.71;69.44;101538.88;2087468;28;46893;-62
2023/01/06 04:07:12;;;;;;;;;0.00;0.00;;;;;13.71;69.64;101548.66;2091305;28;46455;-61
2023/01/06 04:08:12;;;;;;;;;1.00;1.00;;;;;13.70;69.69;101547.78;2095154;28;46250;-61
2023/01/06 04:09:13;;;;;;;;;0.00;0.00;;;;;13.68;69.77;101538.94;2088500;28;46684;-61
2023/01/06 04:10:15;;;;;;;;;0.00;0.00;;;;;13.68;69.43;101538.94;2079498;28;46885;-62
2023/01/06 04:12:39;;;;;;;;;0.00;0.00;;;;;13.65;69.56;101544.34;2079214;28;46701;-61
2023/01/06 04:13:39;;;;;;;;;0.50;0.50;;;;;13.64;69.83;101541.72;2079002;28;47213;-62
2023/01/06 04:14:40;;;;;;;;;0.00;0.00;;;;;13.63;69.34;101553.31;2078858;28;46496;-61
2023/01/06 04:15:41;;;;;;;;;0.00;0.00;;;;;13.61;69.81;101533.78;2079875;28;45668;-61
2023/01/06 04:16:41;;;;;;;;;0.50;0.50;;;;;13.59;69.68;101538.25;2079636;28;47051;-61
2023/01/06 04:17:43;;;;;;;;;0.00;0.00;;;;;13.60;69.73;101545.38;2080811;28;46689;-61
2023/01/06 04:18:43;;;;;;;;;0.00;0.00;;;;;13.60;70.04;101553.38;2081267;28;46682;-62
2023/01/06 04:19:44;;;;;;;;;0.00;0.00;;;;;13.59;69.84;101548.94;2081053;28;46837;-62
2023/01/06 04:20:44;;;;;;;;;1.00;0.67;;;;;13.59;70.03;101548.94;2059223;28;45040;-63
2023/01/06 04:21:44;;;;;;;;;0.00;0.00;;;;;13.60;69.74;101550.72;2065993;28;46536;-63
2023/01/06 04:22:45;;;;;;;;;0.33;0.33;;;;;13.59;70.17;101547.13;2088540;28;46543;-62
2023/01/06 04:23:45;;;;;;;;;2.00;1.00;;;;;13.59;70.01;101552.47;2090289;28;46274;-61
2023/01/06 04:24:46;;;;;;;;;1.00;0.67;;;;;13.59;70.15;101547.13;2088413;28;46300;-62
2023/01/06 04:25:46;;;;;;;;;1.00;1.00;;;;;13.59;69.83;101546.25;2088908;28;46449;-62
2023/01/06 04:26:46;;;;;;;;;0.00;0.00;;;;;13.57;70.13;101546.28;2090354;28;46284;-62
2023/01/06 04:27:47;;;;;;;;;0.00;0.00;;;;;13.59;70.11;101559.59;2088538;28;46381;-62
2023/01/06 04:28:47;;;;;;;;;0.00;0.00;;;;;13.57;70.13;101556.97;2081796;28;45990;-61
2023/01/06 04:29:48;;;;;;;;;0.00;0.00;;;;;13.58;70.03;101561.38;2081888;28;46216;-61
2023/01/06 04:30:48;;;;;;;;;0.00;0.00;;;;;13.59;70.06;101555.13;2071326;28;46560;-63
2023/01/06 04:31:48;;;;;;;;;0.00;0.00;;;;;13.59;70.25;101552.47;2072280;28;46877;-61
2023/01/06 04:32:49;;;;;;;;;0.00;0.00;;;;;13.61;70.23;101555.13;2088166;28;45923;-62
2023/01/06 04:33:49;;;;;;;;;0.33;0.00;;;;;13.61;70.32;101550.69;2088723;28;46290;-62
2023/01/06 04:34:50;;;;;;;;;0.00;0.00;;;;;13.62;70.02;101546.22;2090065;28;46618;-61
2023/01/06 04:35:50;;;;;;;;;0.00;0.00;;;;;13.61;70.00;101548.00;2091399;28;46665;-62
2023/01/06 04:36:50;;;;;;;;;0.00;0.00;;;;;13.61;70.12;101545.34;2082215;28;46561;-61
2023/01/06 04:37:50;;;;;;;;;0.00;0.00;;;;;13.63;69.99;101546.19;2081504;28;46756;-62
2023/01/06 04:38:51;;;;;;;;;0.00;0.00;;;;;13.62;70.10;101549.75;2088975;28;45624;-61
2023/01/06 04:39:51;;;;;;;;;0.00;0.00;;;;;13.62;70.04;101541.75;2089884;28;46702;-61
2023/01/06 04:40:51;;;;;;;;;1.00;1.00;;;;;13.64;70.03;101539.06;2090273;28;46248;-62
2023/01/06 04:41:52;;;;;;;;;0.33;0.33;;;;;13.65;70.20;101535.47;2088891;28;46147;-62
2023/01/06 04:43:04;;;;;;;;;1.00;1.00;;;;;13.67;70.14;101542.53;2090195;28;46928;-61
2023/01/06 04:44:04;;;;;;;;;0.00;0.00;;;;;13.68;70.19;101538.94;2084646;28;46326;-64
2023/01/06 04:45:05;;;;;;;;;0.00;0.00;;;;;13.69;70.39;101538.03;2080585;28;47101;-62
2023/01/06 04:46:06;;;;;;;;;0.00;0.00;;;;;13.70;69.77;101529.13;2089479;28;46329;-62
2023/01/06 04:47:06;;;;;;;;;0.00;0.00;;;;;13.69;70.05;101527.38;2089407;28;46130;-62
2023/01/06 04:48:08;;;;;;;;;1.00;1.00;;;;;13.71;70.01;101530.88;2088135;28;45905;-62
2023/01/06 04:49:08;;;;;;;;;0.00;0.00;;;;;13.71;69.97;101525.53;2080997;28;46983;-62
2023/01/06 04:50:10;;;;;;;;;0.00;0.00;;;;;13.71;69.83;101530.88;2083356;28;46545;-61
2023/01/06 04:51:10;;;;;;;;;0.75;0.75;;;;;13.72;70.12;101531.75;2106992;27;46786;-62
2023/01/06 04:52:11;;;;;;;;;0.67;0.67;;;;;13.71;69.76;101522.88;2106845;27;46630;-60
2023/01/06 04:53:11;;;;;;;;;0.00;0.00;;;;;13.71;69.71;101524.66;2098146;28;45454;-61
2023/01/06 04:54:11;;;;;;;;;0.00;0.00;;;;;13.70;70.00;101521.13;2107137;27;46206;-62
2023/01/06 04:55:12;;;;;;;;;0.00;0.00;;;;;13.70;69.84;101522.91;2105813;28;46630;-62
2023/01/06 04:56:12;;;;;;;;;0.33;0.00;;;;;13.70;70.17;101521.13;2113172;27;46468;-62
2023/01/06 04:57:13;;;;;;;;;0.00;0.00;;;;;13.70;70.10;101517.56;2114916;27;45645;-61
2023/01/06 04:58:14;;;;;;;;;1.00;1.00;;;;;13.69;70.02;101518.50;2114290;27;45924;-63
2023/01/06 04:59:14;;;;;;;;;0.00;0.00;;;;;13.68;70.15;101517.63;2114304;27;46791;-61
2023/01/06 05:00:15;;;;;;;;;0.00;0.00;;;;;13.68;70.11;101519.41;2114430;27;46427;-61
2023/01/06 05:01:16;;;;;;;;;0.00;0.00;;;;;13.68;70.13;101522.06;2106606;27;46063;-61
2023/01/06 05:02:16;;;;;;;;;0.00;0.00;;;;;13.66;69.98;101511.44;2109037;27;45064;-61
2023/01/06 05:03:16;;;;;;;;;0.33;0.33;;;;;13.67;70.13;101513.19;2117025;27;45831;-61
2023/01/06 05:04:17;;;;;;;;;0.00;0.00;;;;;13.68;70.08;101519.41;2111753;27;47006;-60
2023/01/06 05:05:17;;;;;;;;;0.00;0.00;;;;;13.68;69.99;101514.94;2106258;27;45944;-62
2023/01/06 05:06:18;;;;;;;;;0.00;0.00;;;;;13.69;70.20;101515.81;2106087;28;46391;-62